Time;durP1;ratioP1;P1;durP2;ratioP2;P2;SDS_P1;SDS_P2;PMS_P1;PMS_P2;Temp;Humidity;BMP_temperature;BMP_pressure;BME280_temperature;BME280_humidity;BME280_pressure;Samples;Min_cycle;Max_cycle;Signal;HPM_P1;HPM_P2
2021/12/29 00:00:34;;;;;;;1999.90;999.90;;;;;;;;;;5011226;28;20116;-85
2021/12/29 00:03:00;;;;;;;1999.90;999.90;;;;;;;;;;5015262;28;20029;-85
2021/12/29 00:05:26;;;;;;;1999.90;999.90;;;;;;;;;;5030529;28;20041;-84
2021/12/29 00:07:51;;;;;;;1999.90;999.90;;;;;;;;;;5021006;28;20036;-84
2021/12/29 00:10:18;;;;;;;1999.90;999.90;;;;;;;;;;5037569;28;20043;-85
2021/12/29 00:12:48;;;;;;;1999.90;999.90;;;;;;;;;;5037525;28;20025;-85
2021/12/29 00:15:16;;;;;;;1999.90;999.90;;;;;;;;;;5021289;28;20028;-85
2021/12/29 00:17:44;;;;;;;1999.90;999.90;;;;;;;;;;5037147;28;20036;-84
2021/12/29 00:20:10;;;;;;;1999.90;999.90;;;;;;;;;;5021444;28;20082;-85
2021/12/29 00:22:35;;;;;;;1999.90;999.90;;;;;;;;;;5019448;28;20157;-84
2021/12/29 00:25:02;;;;;;;1999.90;999.90;;;;;;;;;;5029799;28;20056;-85
2021/12/29 00:27:29;;;;;;;1999.90;999.90;;;;;;;;;;5029273;28;20021;-84
2021/12/29 00:29:54;;;;;;;1999.90;999.90;;;;;;;;;;5017305;28;20108;-86
2021/12/29 00:32:20;;;;;;;1999.90;999.90;;;;;;;;;;5000728;28;20060;-85
2021/12/29 00:34:45;;;;;;;1999.90;999.90;;;;;;;;;;5000998;28;20064;-85
2021/12/29 00:37:12;;;;;;;1999.90;999.90;;;;;;;;;;5013957;28;20033;-85
2021/12/29 00:39:37;;;;;;;1999.90;999.90;;;;;;;;;;5013968;28;20084;-84
2021/12/29 00:42:03;;;;;;;1999.90;999.90;;;;;;;;;;5037891;28;20026;-85
2021/12/29 00:44:30;;;;;;;1999.90;999.90;;;;;;;;;;5030230;28;20108;-85
2021/12/29 00:46:57;;;;;;;1999.90;999.90;;;;;;;;;;5020556;28;20028;-85
2021/12/29 00:49:29;;;;;;;1999.90;999.90;;;;;;;;;;5023681;28;20032;-84
2021/12/29 00:51:55;;;;;;;1999.90;999.90;;;;;;;;;;5042866;28;20025;-85
2021/12/29 00:54:21;;;;;;;1999.90;999.90;;;;;;;;;;5040633;28;20372;-85
2021/12/29 00:56:47;;;;;;;1999.90;999.90;;;;;;;;;;5024029;28;20027;-84
2021/12/29 00:59:14;;;;;;;1999.90;999.90;;;;;;;;;;5041221;28;20038;-84
2021/12/29 01:01:39;;;;;;;1999.90;999.90;;;;;;;;;;5016758;28;20033;-85
2021/12/29 01:04:05;;;;;;;1999.90;999.90;;;;;;;;;;5020722;28;20103;-84
2021/12/29 01:06:31;;;;;;;1140.85;519.22;;;;;;;;;;5037065;28;20029;-84
2021/12/29 01:08:56;;;;;;;1999.90;999.90;;;;;;;;;;5039733;28;20514;-84
2021/12/29 01:11:22;;;;;;;1999.90;999.90;;;;;;;;;;5023321;28;20082;-84
2021/12/29 01:13:49;;;;;;;1999.90;999.90;;;;;;;;;;5040549;28;20038;-84
2021/12/29 01:19:15;;;;;;;1999.90;999.90;;;;;;;;;;5024246;28;20064;-84
2021/12/29 01:21:42;;;;;;;1999.90;999.90;;;;;;;;;;5017764;28;20051;-84
2021/12/29 01:24:08;;;;;;;1999.90;999.90;;;;;;;;;;5000266;28;20032;-84
2021/12/29 01:26:33;;;;;;;1999.90;999.90;;;;;;;;;;5032395;28;20041;-84
2021/12/29 01:28:59;;;;;;;1999.90;999.90;;;;;;;;;;5032977;28;20120;-84
2021/12/29 01:31:24;;;;;;;1999.90;999.90;;;;;;;;;;5049769;28;20116;-83
2021/12/29 01:33:50;;;;;;;1999.90;999.90;;;;;;;;;;5038738;28;20021;-83
2021/12/29 01:36:15;;;;;;;1999.90;999.90;;;;;;;;;;5042838;28;20411;-83
2021/12/29 01:38:41;;;;;;;1999.90;999.90;;;;;;;;;;5016288;28;20021;-84
2021/12/29 01:41:07;;;;;;;1999.90;999.90;;;;;;;;;;5016508;28;20057;-83
2021/12/29 01:43:33;;;;;;;1999.90;999.90;;;;;;;;;;5027111;28;20029;-83
2021/12/29 01:45:58;;;;;;;1999.90;999.90;;;;;;;;;;5019709;28;20029;-83
2021/12/29 01:48:24;;;;;;;1999.90;999.90;;;;;;;;;;5052978;28;20483;-83
2021/12/29 01:50:51;;;;;;;1999.90;999.90;;;;;;;;;;5019930;28;20062;-83
2021/12/29 01:53:26;;;;;;;1999.90;999.90;;;;;;;;;;5020159;28;20500;-83
2021/12/29 01:55:51;;;;;;;1999.90;999.90;;;;;;;;;;5037688;28;20025;-83
2021/12/29 01:58:18;;;;;;;1999.90;999.90;;;;;;;;;;5029510;28;20112;-83
2021/12/29 02:00:46;;;;;;;1999.90;999.90;;;;;;;;;;5039605;28;20037;-82
2021/12/29 02:03:11;;;;;;;1999.90;999.90;;;;;;;;;;5010455;28;20021;-82
2021/12/29 02:05:37;;;;;;;1999.90;999.90;;;;;;;;;;5020863;28;20044;-83
2021/12/29 02:08:05;;;;;;;1999.90;999.90;;;;;;;;;;5032006;28;20058;-83
2021/12/29 02:10:33;;;;;;;1999.90;999.90;;;;;;;;;;5033254;28;20033;-83
2021/12/29 02:12:59;;;;;;;1999.90;999.90;;;;;;;;;;5016475;28;20022;-83
2021/12/29 02:15:24;;;;;;;1999.90;999.90;;;;;;;;;;4999140;28;20458;-83
2021/12/29 02:17:50;;;;;;;1999.90;999.90;;;;;;;;;;5015624;28;20488;-82
2021/12/29 02:20:18;;;;;;;1999.90;999.90;;;;;;;;;;4999628;28;20068;-81
2021/12/29 02:22:47;;;;;;;1999.90;999.90;;;;;;;;;;5014732;28;20037;-82
2021/12/29 02:27:50;;;;;;;1999.90;999.90;;;;;;;;;;5038337;28;20033;-82
2021/12/29 02:30:16;;;;;;;1999.90;999.90;;;;;;;;;;5019410;28;20041;-83
2021/12/29 02:32:43;;;;;;;1999.90;999.90;;;;;;;;;;5032405;28;20104;-82
2021/12/29 02:35:09;;;;;;;1999.90;999.90;;;;;;;;;;5016481;28;20094;-83
2021/12/29 02:37:35;;;;;;;1999.90;999.90;;;;;;;;;;5015393;28;20068;-82
2021/12/29 02:40:00;;;;;;;1999.90;999.90;;;;;;;;;;5028182;28;20043;-82
2021/12/29 02:42:29;;;;;;;1999.90;999.90;;;;;;;;;;5038492;28;20039;-82
2021/12/29 02:44:55;;;;;;;1999.90;999.90;;;;;;;;;;5030216;28;20077;-82
2021/12/29 02:47:20;;;;;;;1999.90;999.90;;;;;;;;;;5032023;28;20056;-82
2021/12/29 02:49:46;;;;;;;1999.90;999.90;;;;;;;;;;5019982;28;20049;-82
2021/12/29 02:52:13;;;;;;;1999.90;999.90;;;;;;;;;;5048157;28;20029;-82
2021/12/29 02:54:38;;;;;;;1999.90;999.90;;;;;;;;;;5048356;28;20026;-82
2021/12/29 02:57:04;;;;;;;1999.90;999.90;;;;;;;;;;5031758;28;20034;-83
2021/12/29 02:59:29;;;;;;;1999.90;999.90;;;;;;;;;;5019549;28;20107;-82
2021/12/29 03:01:55;;;;;;;1999.90;999.90;;;;;;;;;;5051169;28;20123;-83
2021/12/29 03:04:20;;;;;;;1999.90;999.90;;;;;;;;;;5051179;28;20041;-83
2021/12/29 03:06:46;;;;;;;1999.90;999.90;;;;;;;;;;5017997;28;20041;-83
2021/12/29 03:09:12;;;;;;;1999.90;999.90;;;;;;;;;;5001789;28;20029;-83
2021/12/29 03:11:40;;;;;;;1999.90;999.90;;;;;;;;;;5033960;28;20166;-83
2021/12/29 03:14:05;;;;;;;1999.90;999.90;;;;;;;;;;5033204;28;20596;-83
2021/12/29 03:16:33;;;;;;;1999.90;999.90;;;;;;;;;;5014712;28;20064;-82
2021/12/29 03:18:58;;;;;;;1999.90;999.90;;;;;;;;;;4999196;28;20041;-83
2021/12/29 03:21:24;;;;;;;1999.90;999.90;;;;;;;;;;5014568;28;20044;-82
2021/12/29 03:23:49;;;;;;;1999.90;999.90;;;;;;;;;;4998455;28;20075;-82
2021/12/29 03:26:16;;;;;;;1999.90;999.90;;;;;;;;;;5020441;28;20025;-82
2021/12/29 03:28:43;;;;;;;1999.90;999.90;;;;;;;;;;5033792;28;20426;-82
2021/12/29 03:31:11;;;;;;;1999.90;999.90;;;;;;;;;;5034606;28;20040;-82
2021/12/29 03:33:37;;;;;;;1999.90;999.90;;;;;;;;;;5035066;28;20025;-82
2021/12/29 03:36:03;;;;;;;1999.90;999.90;;;;;;;;;;5017395;28;20044;-83
2021/12/29 03:38:31;;;;;;;1999.90;999.90;;;;;;;;;;5034254;28;20542;-83
2021/12/29 03:40:57;;;;;;;1999.90;999.90;;;;;;;;;;5001670;28;20033;-82
2021/12/29 03:43:23;;;;;;;1999.90;999.90;;;;;;;;;;4998128;28;20029;-82
2021/12/29 03:45:51;;;;;;;1999.90;999.90;;;;;;;;;;4998185;28;20033;-83
2021/12/29 03:48:17;;;;;;;1999.90;999.90;;;;;;;;;;5033634;28;20029;-82
2021/12/29 03:50:42;;;;;;;1999.90;999.90;;;;;;;;;;5013742;28;20035;-82
2021/12/29 03:53:08;;;;;;;1999.90;999.90;;;;;;;;;;5014376;28;20112;-82
2021/12/29 03:55:33;;;;;;;1999.90;999.90;;;;;;;;;;5014655;28;20083;-82
2021/12/29 03:57:59;;;;;;;1999.90;999.90;;;;;;;;;;5014347;28;20124;-82
2021/12/29 04:00:24;;;;;;;1999.90;999.90;;;;;;;;;;5030205;28;20037;-82
2021/12/29 04:02:50;;;;;;;1999.90;999.90;;;;;;;;;;5024655;28;20041;-82
2021/12/29 04:05:19;;;;;;;1999.90;999.90;;;;;;;;;;5033695;28;20045;-82
2021/12/29 04:07:44;;;;;;;1999.90;999.90;;;;;;;;;;5033992;28;20029;-83
2021/12/29 04:10:10;;;;;;;1999.90;999.90;;;;;;;;;;5013347;28;20068;-82
2021/12/29 04:12:36;;;;;;;1999.90;999.90;;;;;;;;;;4997718;28;20031;-82
2021/12/29 04:15:02;;;;;;;1999.90;999.90;;;;;;;;;;4997652;28;20036;-82
2021/12/29 04:17:36;;;;;;;1999.90;999.90;;;;;;;;;;5030515;28;20399;-82
2021/12/29 04:22:50;;;;;;;1999.90;999.90;;;;;;;;;;5048163;28;20105;-82
2021/12/29 04:25:18;;;;;;;1999.90;999.90;;;;;;;;;;5001276;28;20400;-82
2021/12/29 04:27:44;;;;;;;1999.90;999.90;;;;;;;;;;5037189;28;20043;-82
2021/12/29 04:30:09;;;;;;;1999.90;999.90;;;;;;;;;;5025038;28;20025;-82
2021/12/29 04:32:35;;;;;;;1999.90;999.90;;;;;;;;;;5024449;28;20036;-82
2021/12/29 04:35:00;;;;;;;1999.90;999.90;;;;;;;;;;5022118;28;20041;-82
2021/12/29 04:37:26;;;;;;;1999.90;999.90;;;;;;;;;;5001130;28;20037;-82
2021/12/29 04:39:51;;;;;;;1999.90;999.90;;;;;;;;;;5001379;28;20041;-82
2021/12/29 04:42:17;;;;;;;1999.90;999.90;;;;;;;;;;5049470;28;20036;-82
2021/12/29 04:44:42;;;;;;;1999.90;999.90;;;;;;;;;;5020530;28;20441;-82
2021/12/29 04:47:08;;;;;;;1999.90;999.90;;;;;;;;;;5019719;28;20025;-82
2021/12/29 04:49:41;;;;;;;1999.90;999.90;;;;;;;;;;5036845;28;20029;-82
2021/12/29 04:52:10;;;;;;;1999.90;999.90;;;;;;;;;;5023522;28;20025;-82
2021/12/29 04:54:37;;;;;;;1999.90;999.90;;;;;;;;;;5011359;28;20052;-81
2021/12/29 04:57:02;;;;;;;1999.90;999.90;;;;;;;;;;5040821;28;20024;-83
2021/12/29 04:59:28;;;;;;;1999.90;999.90;;;;;;;;;;5040432;28;20036;-81
2021/12/29 05:01:53;;;;;;;1999.90;999.90;;;;;;;;;;5036840;28;20017;-82
2021/12/29 05:04:30;;;;;;;1999.90;999.90;;;;;;;;;;5003885;28;20382;-82
2021/12/29 05:09:39;;;;;;;1999.90;999.90;;;;;;;;;;5043356;28;20551;-82
2021/12/29 05:12:05;;;;;;;1999.90;999.90;;;;;;;;;;5023598;28;20035;-82
2021/12/29 05:14:31;;;;;;;1999.90;999.90;;;;;;;;;;5023797;28;20028;-82
2021/12/29 05:16:56;;;;;;;1999.90;999.90;;;;;;;;;;5054785;28;20068;-82
2021/12/29 05:19:22;;;;;;;1999.90;999.90;;;;;;;;;;5017074;28;20071;-82
2021/12/29 05:21:47;;;;;;;1999.90;999.90;;;;;;;;;;5016835;28;20030;-82
2021/12/29 05:24:13;;;;;;;1999.90;999.90;;;;;;;;;;5000910;28;20042;-82
2021/12/29 05:26:39;;;;;;;1999.90;999.90;;;;;;;;;;5009372;28;20090;-82
2021/12/29 05:29:04;;;;;;;1999.90;999.90;;;;;;;;;;5020456;28;20040;-82
2021/12/29 05:31:30;;;;;;;1999.90;999.90;;;;;;;;;;5035668;28;20029;-82
2021/12/29 05:33:55;;;;;;;1999.90;999.90;;;;;;;;;;5036975;28;20557;-82
2021/12/29 05:36:21;;;;;;;1999.90;999.90;;;;;;;;;;5036497;28;20502;-82
2021/12/29 05:38:46;;;;;;;1999.90;999.90;;;;;;;;;;5039256;28;20083;-82
2021/12/29 05:41:12;;;;;;;1999.90;999.90;;;;;;;;;;5039797;28;20037;-82
2021/12/29 05:43:37;;;;;;;1219.85;526.28;;;;;;;;;;5036268;28;20028;-82
2021/12/29 05:46:03;;;;;;;1999.90;999.90;;;;;;;;;;5035647;28;20021;-82
2021/12/29 05:48:28;;;;;;;1999.90;999.90;;;;;;;;;;5019570;28;20110;-82
2021/12/29 05:50:55;;;;;;;1999.90;999.90;;;;;;;;;;5036648;28;20036;-83
2021/12/29 05:53:20;;;;;;;1999.90;999.90;;;;;;;;;;5032785;28;20025;-82
2021/12/29 05:55:46;;;;;;;1999.90;999.90;;;;;;;;;;5032702;28;20037;-82
2021/12/29 05:58:11;;;;;;;1999.90;999.90;;;;;;;;;;5065698;28;20025;-82
2021/12/29 06:00:38;;;;;;;1999.90;999.90;;;;;;;;;;5016731;28;20031;-82
2021/12/29 06:03:03;;;;;;;1999.90;999.90;;;;;;;;;;5043297;28;20116;-83
2021/12/29 06:05:29;;;;;;;1999.90;999.90;;;;;;;;;;5003284;28;20129;-82
2021/12/29 06:07:54;;;;;;;1999.90;999.90;;;;;;;;;;5026241;28;20033;-82
2021/12/29 06:10:20;;;;;;;1999.90;999.90;;;;;;;;;;5032605;28;20072;-83
2021/12/29 06:12:45;;;;;;;1999.90;999.90;;;;;;;;;;5008328;28;20398;-82
2021/12/29 06:15:10;;;;;;;1999.90;999.90;;;;;;;;;;5038687;28;20040;-82
2021/12/29 06:17:36;;;;;;;1173.43;525.97;;;;;;;;;;5055405;28;20032;-82
2021/12/29 06:20:03;;;;;;;1999.90;999.90;;;;;;;;;;5055354;28;20093;-82
2021/12/29 06:22:28;;;;;;;1999.90;999.90;;;;;;;;;;5039371;28;20028;-81
2021/12/29 06:24:54;;;;;;;1999.90;999.90;;;;;;;;;;5038836;28;20054;-80
2021/12/29 06:27:22;;;;;;;1999.90;999.90;;;;;;;;;;5043158;28;20044;-79
2021/12/29 06:29:48;;;;;;;1999.90;999.90;;;;;;;;;;5038455;28;20050;-80
2021/12/29 06:32:14;;;;;;;1999.90;999.90;;;;;;;;;;5038642;28;20482;-79
2021/12/29 06:34:39;;;;;;;1999.90;999.90;;;;;;;;;;5045910;28;20043;-79
2021/12/29 06:37:08;;;;;;;1999.90;999.90;;;;;;;;;;5038871;28;20083;-79
2021/12/29 06:39:37;;;;;;;1999.90;999.90;;;;;;;;;;5011372;28;20123;-79
2021/12/29 06:42:03;;;;;;;1999.90;999.90;;;;;;;;;;5029812;28;20040;-79
2021/12/29 06:44:29;;;;;;;1999.90;999.90;;;;;;;;;;4996565;28;20037;-79
2021/12/29 06:46:54;;;;;;;1999.90;999.90;;;;;;;;;;5006421;28;20395;-78
2021/12/29 06:49:21;;;;;;;1999.90;999.90;;;;;;;;;;4998807;28;20113;-79
2021/12/29 06:51:46;;;;;;;1999.90;999.90;;;;;;;;;;5031816;28;20495;-79
2021/12/29 06:54:12;;;;;;;1999.90;999.90;;;;;;;;;;4998790;28;20127;-78
2021/12/29 06:56:38;;;;;;;1999.90;999.90;;;;;;;;;;5015363;28;20025;-85
2021/12/29 06:59:04;;;;;;;1999.90;999.90;;;;;;;;;;5009561;28;20040;-86
2021/12/29 07:01:31;;;;;;;1999.90;999.90;;;;;;;;;;5038000;28;20033;-85
2021/12/29 07:03:58;;;;;;;1999.90;999.90;;;;;;;;;;5018590;28;20056;-84
2021/12/29 07:06:24;;;;;;;1999.90;999.90;;;;;;;;;;5007154;28;20046;-85
2021/12/29 07:08:50;;;;;;;1999.90;999.90;;;;;;;;;;5038248;28;20035;-85
2021/12/29 07:11:16;;;;;;;1999.90;999.90;;;;;;;;;;5038141;28;20029;-84
2021/12/29 07:13:44;;;;;;;1999.90;999.90;;;;;;;;;;5021192;28;20058;-87
2021/12/29 07:16:11;;;;;;;1999.90;999.90;;;;;;;;;;5015934;28;20033;-87
2021/12/29 07:18:38;;;;;;;1999.90;999.90;;;;;;;;;;4999342;28;20106;-88
2021/12/29 07:21:04;;;;;;;1999.90;999.90;;;;;;;;;;5018068;28;20057;-88
2021/12/29 07:23:32;;;;;;;1999.90;999.90;;;;;;;;;;5040634;28;20045;-90
2021/12/29 07:25:57;;;;;;;1999.90;999.90;;;;;;;;;;5023449;28;20371;-90
2021/12/29 07:28:26;;;;;;;1999.90;999.90;;;;;;;;;;5019831;28;20083;-92
2021/12/29 07:30:55;;;;;;;1999.90;999.90;;;;;;;;;;5003430;28;20383;-91
2021/12/29 07:33:21;;;;;;;1999.90;999.90;;;;;;;;;;5017487;28;20033;-92
2021/12/29 07:35:50;;;;;;;1999.90;999.90;;;;;;;;;;5019268;28;20033;-90
2021/12/29 07:38:16;;;;;;;1999.90;999.90;;;;;;;;;;5019428;28;20036;-90
2021/12/29 07:40:45;;;;;;;1999.90;999.90;;;;;;;;;;5019170;28;20082;-92
2021/12/29 07:43:12;;;;;;;1999.90;999.90;;;;;;;;;;5018842;28;20032;-91
2021/12/29 07:45:41;;;;;;;1999.90;999.90;;;;;;;;;;5018755;28;20017;-91
2021/12/29 07:48:09;;;;;;;1999.90;999.90;;;;;;;;;;5003806;28;20028;-91
2021/12/29 07:50:36;;;;;;;1999.90;999.90;;;;;;;;;;5003203;28;20025;-91
2021/12/29 07:53:04;;;;;;;1999.90;999.90;;;;;;;;;;5002537;28;20486;-89
2021/12/29 07:55:31;;;;;;;1999.90;999.90;;;;;;;;;;5015426;28;20403;-87
2021/12/29 07:57:57;;;;;;;1999.90;999.90;;;;;;;;;;5014446;28;20033;-86
2021/12/29 08:00:25;;;;;;;1999.90;999.90;;;;;;;;;;5034338;28;20131;-86
2021/12/29 08:02:51;;;;;;;1999.90;999.90;;;;;;;;;;5003937;28;20032;-86
2021/12/29 08:05:17;;;;;;;1999.90;999.90;;;;;;;;;;5037362;28;20041;-84
2021/12/29 08:07:43;;;;;;;1999.90;999.90;;;;;;;;;;5019874;28;20044;-85
2021/12/29 08:10:10;;;;;;;1999.90;999.90;;;;;;;;;;5035172;28;20032;-84
2021/12/29 08:12:36;;;;;;;1999.90;999.90;;;;;;;;;;5015334;28;20051;-86
2021/12/29 08:15:03;;;;;;;1999.90;999.90;;;;;;;;;;5014530;28;20033;-86
2021/12/29 08:17:32;;;;;;;1999.90;999.90;;;;;;;;;;5014444;28;20162;-85
2021/12/29 08:20:00;;;;;;;1999.90;999.90;;;;;;;;;;5021824;28;20057;-86
2021/12/29 08:22:26;;;;;;;1999.90;999.90;;;;;;;;;;5018233;28;20033;-86
2021/12/29 08:24:52;;;;;;;1999.90;999.90;;;;;;;;;;5009341;28;20026;-86
2021/12/29 08:27:18;;;;;;;1999.90;999.90;;;;;;;;;;5031039;28;20057;-86
2021/12/29 08:29:44;;;;;;;1999.90;999.90;;;;;;;;;;5047698;28;20108;-86
2021/12/29 08:32:10;;;;;;;1999.90;999.90;;;;;;;;;;5033115;28;20028;-86
2021/12/29 08:34:35;;;;;;;1999.90;999.90;;;;;;;;;;5017024;28;20041;-86
2021/12/29 08:37:03;;;;;;;1999.90;999.90;;;;;;;;;;5017807;28;20045;-87
2021/12/29 08:39:30;;;;;;;1999.90;999.90;;;;;;;;;;5018129;28;20036;-87
2021/12/29 08:41:56;;;;;;;1999.90;999.90;;;;;;;;;;5001666;28;20098;-87
2021/12/29 08:44:23;;;;;;;1999.90;999.90;;;;;;;;;;5028755;28;20028;-87
2021/12/29 08:46:49;;;;;;;1999.90;999.90;;;;;;;;;;5030455;28;20030;-87
2021/12/29 08:49:17;;;;;;;1999.90;999.90;;;;;;;;;;5014491;28;20026;-87
2021/12/29 08:51:43;;;;;;;1999.90;999.90;;;;;;;;;;5031022;28;20033;-88
2021/12/29 08:54:09;;;;;;;1999.90;999.90;;;;;;;;;;4981907;28;20025;-87
2021/12/29 08:56:35;;;;;;;1999.90;999.90;;;;;;;;;;4998723;28;20040;-91
2021/12/29 08:59:04;;;;;;;1999.90;999.90;;;;;;;;;;5015278;28;20028;-92
2021/12/29 09:01:32;;;;;;;1999.90;999.90;;;;;;;;;;5031177;28;20051;-90
2021/12/29 09:04:01;;;;;;;1999.90;999.90;;;;;;;;;;5019517;28;20029;-89
2021/12/29 09:06:28;;;;;;;1999.90;999.90;;;;;;;;;;5038043;28;20040;-90
2021/12/29 09:08:55;;;;;;;1999.90;999.90;;;;;;;;;;5022898;28;20035;-89
2021/12/29 09:11:21;;;;;;;1999.90;999.90;;;;;;;;;;5017718;28;20059;-89
2021/12/29 09:13:49;;;;;;;1999.90;999.90;;;;;;;;;;5035178;28;20124;-88
2021/12/29 09:16:16;;;;;;;1999.90;999.90;;;;;;;;;;5034911;28;20124;-89
2021/12/29 09:18:43;;;;;;;1999.90;999.90;;;;;;;;;;5001907;28;20083;-89
2021/12/29 09:21:14;;;;;;;1999.90;999.90;;;;;;;;;;5018559;28;20391;-89
2021/12/29 09:23:40;;;;;;;1999.90;999.90;;;;;;;;;;5002723;28;20031;-90
2021/12/29 09:26:15;;;;;;;1999.90;999.90;;;;;;;;;;5033276;28;20651;-89
2021/12/29 09:28:44;;;;;;;1999.90;999.90;;;;;;;;;;5002512;28;20037;-90
2021/12/29 09:31:14;;;;;;;1999.90;999.90;;;;;;;;;;5034426;28;20033;-88
2021/12/29 09:33:42;;;;;;;1999.90;999.90;;;;;;;;;;5021534;28;20021;-90
2021/12/29 09:36:09;;;;;;;1999.90;999.90;;;;;;;;;;5005364;28;20033;-90
2021/12/29 09:38:35;;;;;;;1999.90;999.90;;;;;;;;;;5004911;28;20059;-83
2021/12/29 09:41:02;;;;;;;1999.90;999.90;;;;;;;;;;5004401;28;20036;-82
2021/12/29 09:43:27;;;;;;;1999.90;999.90;;;;;;;;;;5004517;28;20434;-87
2021/12/29 09:45:53;;;;;;;1999.90;999.90;;;;;;;;;;5003695;28;20029;-84
2021/12/29 09:48:19;;;;;;;1999.90;999.90;;;;;;;;;;5003733;28;20089;-85
2021/12/29 09:50:44;;;;;;;1999.90;999.90;;;;;;;;;;5033330;28;20033;-85
2021/12/29 09:53:10;;;;;;;1999.90;999.90;;;;;;;;;;5000076;28;20032;-85
2021/12/29 09:55:36;;;;;;;1999.90;999.90;;;;;;;;;;4999919;28;20535;-84
2021/12/29 09:58:03;;;;;;;1999.90;999.90;;;;;;;;;;5027537;28;20045;-84
2021/12/29 10:00:29;;;;;;;1999.90;999.90;;;;;;;;;;5021769;28;20034;-84
2021/12/29 10:02:56;;;;;;;1999.90;999.90;;;;;;;;;;5052145;28;20108;-84
2021/12/29 10:05:22;;;;;;;1999.90;999.90;;;;;;;;;;4999614;28;20047;-84
2021/12/29 10:08:00;;;;;;;1999.90;999.90;;;;;;;;;;5052330;28;20399;-83
2021/12/29 10:10:26;;;;;;;1999.90;999.90;;;;;;;;;;5003684;28;20025;-84
2021/12/29 10:12:52;;;;;;;1999.90;999.90;;;;;;;;;;5035945;28;20112;-85
2021/12/29 10:15:18;;;;;;;1999.90;999.90;;;;;;;;;;5019192;28;20033;-84
2021/12/29 10:17:44;;;;;;;1999.90;999.90;;;;;;;;;;5019325;28;20028;-84
2021/12/29 10:20:09;;;;;;;1999.90;999.90;;;;;;;;;;5002533;28;20139;-84
2021/12/29 10:22:36;;;;;;;1999.90;999.90;;;;;;;;;;5035763;28;20025;-84
2021/12/29 10:25:12;;;;;;;1999.90;999.90;;;;;;;;;;5035896;28;20041;-84
2021/12/29 10:27:39;;;;;;;1999.90;999.90;;;;;;;;;;4999186;28;20030;-82
2021/12/29 10:30:18;;;;;;;1516.40;751.22;;;;;;;;;;5015967;28;20526;-83
2021/12/29 10:32:44;;;;;;;1999.90;999.90;;;;;;;;;;4999377;28;20067;-83
2021/12/29 10:35:19;;;;;;;1999.90;999.90;;;;;;;;;;5002668;28;20490;-84
2021/12/29 10:37:46;;;;;;;1999.90;999.90;;;;;;;;;;5018906;28;20475;-84
2021/12/29 10:40:15;;;;;;;1999.90;999.90;;;;;;;;;;5019141;28;20037;-84
2021/12/29 10:42:42;;;;;;;1999.90;999.90;;;;;;;;;;5003801;28;20032;-83
2021/12/29 10:45:07;;;;;;;1999.90;999.90;;;;;;;;;;5004059;28;20113;-83
2021/12/29 10:47:34;;;;;;;1999.90;999.90;;;;;;;;;;5036287;28;20032;-83
2021/12/29 10:50:11;;;;;;;1999.90;999.90;;;;;;;;;;5021116;28;20035;-83
2021/12/29 10:52:38;;;;;;;1999.90;999.90;;;;;;;;;;5022388;28;20043;-84
2021/12/29 10:55:07;;;;;;;1999.90;999.90;;;;;;;;;;5025257;28;20033;-84
2021/12/29 10:57:32;;;;;;;1999.90;999.90;;;;;;;;;;5002626;28;20028;-84
2021/12/29 10:59:59;;;;;;;1999.90;999.90;;;;;;;;;;5002023;28;20033;-83
2021/12/29 11:02:32;;;;;;;1999.90;999.90;;;;;;;;;;5031467;28;20056;-83
2021/12/29 11:04:59;;;;;;;1999.90;999.90;;;;;;;;;;5015258;28;20040;-84
2021/12/29 11:07:26;;;;;;;1999.90;999.90;;;;;;;;;;5044472;28;20104;-83
2021/12/29 11:09:53;;;;;;;1999.90;999.90;;;;;;;;;;5016346;28;20092;-83
2021/12/29 11:12:20;;;;;;;1090.47;512.90;;;;;;;;;;5018166;28;20033;-83
2021/12/29 11:14:50;;;;;;;1631.35;774.20;;;;;;;;;;5032742;28;20119;-84
2021/12/29 11:17:20;;;;;;;1142.25;524.75;;;;;;;;;;5033196;28;20021;-82
2021/12/29 11:19:59;;;;;;;1999.90;999.90;;;;;;;;;;5044820;28;20041;-83
2021/12/29 11:22:26;;;;;;;1154.70;524.10;;;;;;;;;;5010950;28;20040;-83
2021/12/29 11:24:56;;;;;;;1999.90;999.90;;;;;;;;;;4998473;28;20033;-83
2021/12/29 11:27:23;;;;;;;1999.90;999.90;;;;;;;;;;4998616;28;20026;-82
2021/12/29 11:30:03;;;;;;;1527.00;755.15;;;;;;;;;;5052333;28;20032;-83
2021/12/29 11:32:36;;;;;;;1999.90;999.90;;;;;;;;;;5004334;28;20021;-83
2021/12/29 11:35:23;;;;;;;1999.90;999.90;;;;;;;;;;5016621;28;20480;-82
2021/12/29 11:37:49;;;;;;;1546.72;756.42;;;;;;;;;;5031347;28;20164;-83
2021/12/29 11:40:17;;;;;;;1999.90;999.90;;;;;;;;;;5031268;28;20097;-82
2021/12/29 11:42:42;;;;;;;1999.90;999.90;;;;;;;;;;5032150;28;20086;-82
2021/12/29 11:45:08;;;;;;;1999.90;999.90;;;;;;;;;;5001369;28;20123;-82
2021/12/29 11:47:33;;;;;;;1999.90;999.90;;;;;;;;;;5025333;28;20024;-84
2021/12/29 11:49:59;;;;;;;1999.90;999.90;;;;;;;;;;5037383;28;20036;-84
2021/12/29 11:52:35;;;;;;;1999.90;999.90;;;;;;;;;;5037372;28;20363;-84
2021/12/29 11:55:14;;;;;;;1999.90;999.90;;;;;;;;;;5037690;28;20074;-85
2021/12/29 11:57:40;;;;;;;1999.90;999.90;;;;;;;;;;5036481;28;20051;-82
2021/12/29 12:00:16;;;;;;;1999.90;999.90;;;;;;;;;;5020797;28;20032;-81
2021/12/29 12:02:41;;;;;;;1999.90;999.90;;;;;;;;;;5024077;28;20488;-83
2021/12/29 12:05:09;;;;;;;1999.90;999.90;;;;;;;;;;4997624;28;20052;-82
2021/12/29 12:07:36;;;;;;;1999.90;999.90;;;;;;;;;;5017366;28;20108;-81
2021/12/29 12:10:08;;;;;;;1999.90;999.90;;;;;;;;;;5011125;28;20052;-83
2021/12/29 12:12:35;;;;;;;1999.90;999.90;;;;;;;;;;5011573;28;20115;-83
2021/12/29 12:15:00;;;;;;;1999.90;999.90;;;;;;;;;;5016493;28;20048;-81
2021/12/29 12:17:28;;;;;;;1999.90;999.90;;;;;;;;;;5044176;28;20033;-81
2021/12/29 12:20:07;;;;;;;1999.90;999.90;;;;;;;;;;5007343;28;20030;-81
2021/12/29 12:22:49;;;;;;;1999.90;999.90;;;;;;;;;;5029355;28;20025;-81
2021/12/29 12:25:26;;;;;;;1999.90;999.90;;;;;;;;;;5017108;28;20025;-81
2021/12/29 12:28:01;;;;;;;1999.90;999.90;;;;;;;;;;5031430;28;20075;-81
2021/12/29 12:30:27;;;;;;;1999.90;999.90;;;;;;;;;;5015420;28;20476;-81
2021/12/29 12:32:54;;;;;;;1999.90;999.90;;;;;;;;;;5016521;28;20052;-81
2021/12/29 12:35:36;;;;;;;1999.90;999.90;;;;;;;;;;5017015;28;20040;-81
2021/12/29 12:38:11;;;;;;;;;;;;;;;;;;5001198;28;20106;-81
2021/12/29 12:40:37;;;;;;;1999.90;999.90;;;;;;;;;;5050335;28;20469;-81
2021/12/29 12:43:03;;;;;;;1999.90;999.90;;;;;;;;;;5034405;28;20032;-81
2021/12/29 12:45:33;;;;;;;1999.90;999.90;;;;;;;;;;5057303;28;20028;-81
2021/12/29 12:48:18;;;;;;;1999.90;999.90;;;;;;;;;;5024131;28;20075;-81
2021/12/29 12:50:44;;;;;;;1999.90;999.90;;;;;;;;;;5026160;28;20021;-81
2021/12/29 12:53:10;;;;;;;1999.90;999.90;;;;;;;;;;5039956;28;20458;-81
2021/12/29 12:56:02;;;;;;;1999.90;999.90;;;;;;;;;;5031387;28;20033;-81
2021/12/29 12:58:29;;;;;;;1999.90;999.90;;;;;;;;;;5060636;28;20037;-81
2021/12/29 13:01:01;;;;;;;1999.90;999.90;;;;;;;;;;5038933;28;20507;-81
2021/12/29 13:03:26;;;;;;;1999.90;999.90;;;;;;;;;;5034182;28;20041;-81
2021/12/29 13:05:56;;;;;;;1999.90;999.90;;;;;;;;;;5023872;28;20062;-81
2021/12/29 13:08:24;;;;;;;1999.90;999.90;;;;;;;;;;5040613;28;20036;-81
2021/12/29 13:10:49;;;;;;;1999.90;999.90;;;;;;;;;;5040264;28;20031;-81
2021/12/29 13:13:20;;;;;;;1999.90;999.90;;;;;;;;;;5036558;28;20426;-81
2021/12/29 13:15:56;;;;;;;1999.90;999.90;;;;;;;;;;5033785;28;20032;-81
2021/12/29 13:18:22;;;;;;;1999.90;999.90;;;;;;;;;;5008865;28;20132;-81
2021/12/29 13:20:47;;;;;;;1999.90;999.90;;;;;;;;;;5017294;28;20041;-80
2021/12/29 13:23:19;;;;;;;1999.90;999.90;;;;;;;;;;5016967;28;20025;-81
2021/12/29 13:25:47;;;;;;;1999.90;999.90;;;;;;;;;;5002976;28;20356;-81
2021/12/29 13:28:13;;;;;;;1999.90;999.90;;;;;;;;;;5004488;28;20033;-82
2021/12/29 13:30:50;;;;;;;1999.90;999.90;;;;;;;;;;5030527;28;20043;-81
2021/12/29 13:33:18;;;;;;;1999.90;999.90;;;;;;;;;;4993085;28;20396;-81
2021/12/29 13:35:46;;;;;;;1999.90;999.90;;;;;;;;;;5018581;28;20126;-81
2021/12/29 13:38:13;;;;;;;1999.90;999.90;;;;;;;;;;5003212;28;20048;-81
2021/12/29 13:40:42;;;;;;;1999.90;999.90;;;;;;;;;;5040006;28;20036;-81
2021/12/29 13:43:12;;;;;;;1999.90;999.90;;;;;;;;;;5029865;28;20040;-81
2021/12/29 13:45:37;;;;;;;1999.90;999.90;;;;;;;;;;4985739;28;20029;-81
2021/12/29 13:48:03;;;;;;;1999.90;999.90;;;;;;;;;;5023866;28;20044;-80
2021/12/29 13:50:29;;;;;;;1999.90;999.90;;;;;;;;;;5034374;28;20029;-80
2021/12/29 13:53:08;;;;;;;1999.90;999.90;;;;;;;;;;5023114;28;20376;-81